Time;durP1;ratioP1;P1;durP2;ratioP2;P2;SDS_P1;SDS_P2;PMS_P1;PMS_P2;Temp;Humidity;BMP_temperature;BMP_pressure;BME280_temperature;BME280_humidity;BME280_pressure;Samples;Min_cycle;Max_cycle;Signal;HPM_P1;HPM_P2
2023/09/14 00:00:04;;;;;;;;;;;27.10;77.60;;;;;;5013448;28;43042;-79
2023/09/14 00:02:29;;;;;;;;;;;26.80;77.10;;;;;;5014878;28;42965;-79
2023/09/14 00:04:55;;;;;;;;;;;26.90;78.00;;;;;;5026142;28;43431;-82
2023/09/14 00:07:20;;;;;;;;;;;26.90;77.00;;;;;;5026392;28;42946;-80
2023/09/14 00:09:46;;;;;;;;;;;25.60;75.90;;;;;;5026340;28;43743;-82
2023/09/14 00:12:11;;;;;;;;;;;27.00;77.00;;;;;;5023837;28;42903;-78
2023/09/14 00:14:37;;;;;;;;;;;26.90;77.20;;;;;;5026252;28;43614;-82
2023/09/14 00:17:03;;;;;;;;;;;26.80;77.10;;;;;;5025480;28;42985;-81
2023/09/14 00:19:28;;;;;;;;;;;27.10;76.60;;;;;;5025489;28;42966;-82
2023/09/14 00:21:54;;;;;;;;;;;26.90;77.10;;;;;;5025306;28;43037;-81
2023/09/14 00:24:19;;;;;;;;;;;27.10;77.20;;;;;;5025870;28;43726;-80
2023/09/14 00:26:45;;;;;;;;;;;26.90;77.00;;;;;;5025632;28;43162;-82
2023/09/14 00:29:10;;;;;;;;;;;26.70;77.90;;;;;;5026052;28;42883;-78
2023/09/14 00:31:38;;;;;;;;;;;26.90;78.30;;;;;;5025616;28;42874;-81
2023/09/14 00:34:04;;;;;;;;;;;26.80;78.40;;;;;;5025241;28;43660;-80
2023/09/14 00:36:30;;;;;;;;;;;26.60;77.80;;;;;;5026738;28;43320;-82
2023/09/14 00:38:55;;;;;;;;;;;26.60;78.40;;;;;;5025019;28;43493;-77
2023/09/14 00:41:21;;;;;;;;;;;26.70;77.70;;;;;;5025108;28;43566;-82
2023/09/14 00:43:46;;;;;;;;;;;26.70;77.40;;;;;;5025527;28;42992;-80
2023/09/14 00:46:12;;;;;;;;;;;26.90;78.00;;;;;;5026154;28;43085;-82
2023/09/14 00:48:38;;;;;;;;;;;26.90;77.80;;;;;;5024329;28;43034;-81
2023/09/14 00:51:03;;;;;;;;;;;27.00;77.70;;;;;;5025406;28;43076;-81
2023/09/14 00:53:29;;;;;;;;;;;26.90;77.50;;;;;;5022567;28;42937;-81
2023/09/14 00:55:56;;;;;;;;;;;26.90;77.50;;;;;;5025666;28;43001;-79
2023/09/14 00:58:21;;;;;;;;;;;26.90;77.60;;;;;;5024878;28;43151;-81
2023/09/14 01:00:47;;;;;;;;;;;27.00;76.90;;;;;;5025582;28;43016;-81
2023/09/14 01:03:13;;;;;;;;;;;27.00;77.40;;;;;;5024995;28;43069;-81
2023/09/14 01:05:39;;;;;;;;;;;26.90;77.10;;;;;;5024972;28;42957;-80
2023/09/14 01:08:05;;;;;;;;;;;26.80;78.10;;;;;;5024580;28;43493;-82
2023/09/14 01:10:30;;;;;;;;;;;26.80;78.20;;;;;;5023930;28;43314;-81
2023/09/14 01:12:57;;;;;;;;;;;26.90;78.10;;;;;;5024745;28;42981;-78
2023/09/14 01:15:33;;;;;;;;;;;26.90;78.00;;;;;;5024881;28;43080;-81
2023/09/14 01:18:07;;;;;;;;;;;26.90;75.30;;;;;;5025240;28;43410;-81
2023/09/14 01:20:46;;;;;;;;;;;26.90;75.40;;;;;;5024882;28;43011;-80
2023/09/14 01:23:12;;;;;;;;;;;26.60;75.30;;;;;;5025689;28;42823;-78
2023/09/14 01:25:41;;;;;;;;;;;26.90;78.50;;;;;;5024990;28;43056;-80
2023/09/14 01:28:08;;;;;;;;;;;26.60;75.80;;;;;;5022721;28;44367;-79
2023/09/14 01:30:33;;;;;;;;;;;26.60;77.80;;;;;;5023917;28;42974;-81
2023/09/14 01:32:59;;;;;;;;;;;26.80;78.30;;;;;;5024628;28;43501;-77
2023/09/14 01:35:27;;;;;;;;;;;26.70;77.90;;;;;;5024919;28;42773;-79
2023/09/14 01:37:55;;;;;;;;;;;26.80;78.20;;;;;;5024088;28;43551;-82
2023/09/14 01:40:20;;;;;;;;;;;26.90;78.20;;;;;;5024043;28;42994;-80
2023/09/14 01:42:46;;;;;;;;;;;26.60;77.50;;;;;;5025285;28;42985;-80
2023/09/14 01:45:12;;;;;;;;;;;26.90;78.20;;;;;;5024998;28;42965;-81
2023/09/14 01:47:37;;;;;;;;;;;26.80;77.90;;;;;;5025160;28;42978;-81
2023/09/14 01:50:14;;;;;;;;;;;26.80;73.50;;;;;;5121561;27;44195;-81
2023/09/14 01:52:39;;;;;;;;;;;26.80;75.30;;;;;;5123018;27;43460;-82
2023/09/14 01:55:05;;;;;;;;;;;26.90;76.20;;;;;;5121899;27;43034;-83
2023/09/14 01:57:30;;;;;;;;;;;26.70;75.30;;;;;;5121765;27;42975;-79
2023/09/14 01:59:56;;;;;;;;;;;26.40;76.60;;;;;;5122411;27;42976;-83
2023/09/14 02:02:24;;;;;;;;;;;26.90;76.40;;;;;;5122277;27;43585;-83
2023/09/14 02:04:49;;;;;;;;;;;26.90;75.70;;;;;;5121799;27;43067;-83
2023/09/14 02:07:15;;;;;;;;;;;27.00;76.40;;;;;;5121406;27;42878;-82
2023/09/14 02:09:41;;;;;;;;;;;26.80;76.60;;;;;;5122480;27;42957;-82
2023/09/14 02:12:06;;;;;;;;;;;27.00;76.40;;;;;;5121167;27;42929;-82
2023/09/14 02:14:32;;;;;;;;;;;26.60;76.20;;;;;;5121394;27;42852;-79
2023/09/14 02:16:57;;;;;;;;;;;26.80;77.20;;;;;;5121448;27;43035;-81
2023/09/14 02:19:22;;;;;;;;;;;26.70;77.30;;;;;;5121514;27;42878;-82
2023/09/14 02:21:48;;;;;;;;;;;26.80;77.80;;;;;;5121500;27;43168;-81
2023/09/14 02:24:13;;;;;;;;;;;26.80;77.70;;;;;;5121492;27;43211;-79
2023/09/14 02:26:39;;;;;;;;;;;26.90;76.80;;;;;;5120705;27;43009;-79
2023/09/14 02:29:05;;;;;;;;;;;26.90;76.80;;;;;;5121678;27;43113;-82
2023/09/14 02:31:31;;;;;;;;;;;26.80;77.10;;;;;;5121884;27;42818;-82
2023/09/14 02:33:57;;;;;;;;;;;26.80;77.10;;;;;;5119818;27;43355;-82
2023/09/14 02:36:25;;;;;;;;;;;26.50;76.70;;;;;;5121111;27;42925;-82
2023/09/14 02:38:50;;;;;;;;;;;26.40;76.80;;;;;;5121743;27;42948;-82
2023/09/14 02:41:17;;;;;;;;;;;26.60;77.00;;;;;;5121772;27;43366;-79
2023/09/14 02:43:42;;;;;;;;;;;26.70;77.30;;;;;;5120921;27;43173;-81
2023/09/14 02:46:08;;;;;;;;;;;26.80;77.60;;;;;;5121538;27;42878;-78
2023/09/14 02:48:33;;;;;;;;;;;26.80;77.50;;;;;;5119248;27;43149;-79
2023/09/14 02:50:59;;;;;;;;;;;26.70;77.10;;;;;;5121536;27;43611;-81
2023/09/14 02:53:24;;;;;;;;;;;26.60;77.00;;;;;;5121327;27;42974;-79
2023/09/14 02:55:50;;;;;;;;;;;26.80;77.40;;;;;;5121178;27;43179;-79
2023/09/14 02:58:16;;;;;;;;;;;26.80;77.10;;;;;;5114661;27;42849;-80
2023/09/14 03:00:41;;;;;;;;;;;26.80;76.90;;;;;;5092121;27;43765;-79
2023/09/14 03:03:09;;;;;;;;;;;26.70;76.70;;;;;;5086767;27;42915;-80
2023/09/14 03:05:35;;;;;;;;;;;26.70;74.70;;;;;;5107722;27;42877;-82
2023/09/14 03:08:01;;;;;;;;;;;26.60;77.20;;;;;;5105994;27;43081;-82
2023/09/14 03:10:27;;;;;;;;;;;26.60;77.30;;;;;;5106434;27;43529;-82
2023/09/14 03:12:52;;;;;;;;;;;26.30;77.10;;;;;;5087574;27;42822;-82
2023/09/14 03:15:18;;;;;;;;;;;26.40;77.90;;;;;;5087072;28;42884;-83
2023/09/14 03:17:43;;;;;;;;;;;26.40;78.00;;;;;;5086120;28;43025;-81
2023/09/14 03:20:10;;;;;;;;;;;26.50;78.00;;;;;;5086403;27;43062;-82
2023/09/14 03:22:36;;;;;;;;;;;26.20;77.00;;;;;;5086792;27;42949;-82
2023/09/14 03:25:05;;;;;;;;;;;26.40;77.60;;;;;;5067798;28;43437;-83
2023/09/14 03:27:30;;;;;;;;;;;26.30;74.50;;;;;;5085807;28;42871;-79
2023/09/14 03:29:56;;;;;;;;;;;26.40;77.50;;;;;;5085804;27;43589;-81
2023/09/14 03:32:21;;;;;;;;;;;26.40;77.40;;;;;;5087264;27;43111;-79
2023/09/14 03:34:47;;;;;;;;;;;26.60;77.50;;;;;;5086881;28;42933;-83
2023/09/14 03:37:12;;;;;;;;;;;26.40;76.90;;;;;;5086926;28;42963;-82
2023/09/14 03:39:38;;;;;;;;;;;26.50;77.20;;;;;;5094203;27;42921;-79
2023/09/14 03:42:04;;;;;;;;;;;26.50;77.00;;;;;;5101798;27;43031;-81
2023/09/14 03:44:29;;;;;;;;;;;26.90;76.40;;;;;;5106493;27;43531;-82
2023/09/14 03:46:55;;;;;;;;;;;26.50;76.80;;;;;;5106529;27;42949;-82
2023/09/14 03:49:20;;;;;;;;;;;26.40;76.70;;;;;;5105243;27;43659;-80
2023/09/14 03:51:46;;;;;;;;;;;26.40;76.70;;;;;;5105059;27;42952;-80
2023/09/14 03:54:11;;;;;;;;;;;26.20;76.40;;;;;;5106820;27;43462;-81
2023/09/14 03:56:37;;;;;;;;;;;26.40;76.30;;;;;;5105967;27;42986;-80
2023/09/14 03:59:03;;;;;;;;;;;26.50;76.80;;;;;;5106258;27;44475;-81
2023/09/14 04:01:28;;;;;;;;;;;26.30;75.90;;;;;;5105365;27;42826;-80
2023/09/14 04:03:54;;;;;;;;;;;26.50;76.50;;;;;;5106068;27;42949;-80
2023/09/14 04:06:19;;;;;;;;;;;26.30;76.00;;;;;;5106591;27;43159;-78
2023/09/14 04:08:45;;;;;;;;;;;26.40;76.20;;;;;;5106335;27;42949;-81
2023/09/14 04:11:10;;;;;;;;;;;26.30;76.30;;;;;;5104541;27;42921;-79
2023/09/14 04:13:36;;;;;;;;;;;26.40;76.40;;;;;;5106064;27;42945;-81
2023/09/14 04:16:03;;;;;;;;;;;26.40;76.40;;;;;;5106367;27;42925;-81
2023/09/14 04:18:33;;;;;;;;;;;26.50;76.20;;;;;;5104704;27;43734;-81
2023/09/14 04:20:58;;;;;;;;;;;26.30;75.80;;;;;;5105466;27;42954;-80
2023/09/14 04:23:24;;;;;;;;;;;26.50;75.90;;;;;;5103948;27;42937;-79
2023/09/14 04:25:49;;;;;;;;;;;26.60;75.50;;;;;;5104896;27;42981;-82
2023/09/14 04:28:16;;;;;;;;;;;26.50;75.20;;;;;;5092990;27;42928;-79
2023/09/14 04:30:48;;;;;;;;;;;26.50;75.20;;;;;;5086299;27;42842;-78
2023/09/14 04:33:14;;;;;;;;;;;26.60;72.70;;;;;;5085717;28;43443;-80
2023/09/14 04:35:40;;;;;;;;;;;26.50;75.00;;;;;;5088885;27;43003;-81
2023/09/14 04:38:08;;;;;;;;;;;26.70;74.80;;;;;;5103750;27;42910;-81
2023/09/14 04:40:35;;;;;;;;;;;26.80;75.00;;;;;;5099386;27;42922;-79
2023/09/14 04:43:01;;;;;;;;;;;26.70;74.90;;;;;;5085723;28;43491;-78
2023/09/14 04:45:26;;;;;;;;;;;26.60;75.00;;;;;;5085761;27;43254;-80
2023/09/14 04:47:52;;;;;;;;;;;26.60;75.10;;;;;;5084936;27;43036;-81
2023/09/14 04:50:17;;;;;;;;;;;26.50;75.10;;;;;;5104305;27;43030;-79
2023/09/14 04:52:43;;;;;;;;;;;26.80;75.20;;;;;;5104938;27;43429;-80
2023/09/14 04:55:09;;;;;;;;;;;26.30;75.20;;;;;;5106313;27;42953;-81
2023/09/14 04:57:35;;;;;;;;;;;26.40;75.40;;;;;;5101457;27;43418;-82
2023/09/14 05:00:00;;;;;;;;;;;26.20;75.10;;;;;;5106039;27;42958;-80
2023/09/14 05:02:27;;;;;;;;;;;26.50;75.20;;;;;;5103979;27;42958;-79
2023/09/14 05:04:53;;;;;;;;;;;26.40;74.70;;;;;;5101866;27;42849;-80
2023/09/14 05:07:20;;;;;;;;;;;26.40;75.00;;;;;;5105608;27;42905;-81
2023/09/14 05:09:45;;;;;;;;;;;26.50;75.10;;;;;;5098862;27;43014;-79
2023/09/14 05:12:11;;;;;;;;;;;26.60;74.90;;;;;;5103212;27;43566;-81
2023/09/14 05:14:36;;;;;;;;;;;26.50;74.90;;;;;;5103820;27;43123;-77
2023/09/14 05:17:02;;;;;;;;;;;26.50;75.00;;;;;;5105375;27;43058;-78
2023/09/14 05:19:29;;;;;;;;;;;26.60;74.30;;;;;;5103539;27;43079;-79
2023/09/14 05:21:55;;;;;;;;;;;26.60;74.50;;;;;;5104744;27;43016;-79
2023/09/14 05:24:20;;;;;;;;;;;26.50;74.90;;;;;;5105910;27;42760;-78
2023/09/14 05:26:47;;;;;;;;;;;26.50;74.40;;;;;;5102062;27;42942;-79
2023/09/14 05:29:13;;;;;;;;;;;26.50;74.70;;;;;;5102349;27;43122;-80
2023/09/14 05:31:39;;;;;;;;;;;26.70;74.10;;;;;;5102586;27;43126;-80
2023/09/14 05:34:06;;;;;;;;;;;26.50;74.90;;;;;;5104882;27;42889;-79
2023/09/14 05:36:31;;;;;;;;;;;26.30;75.40;;;;;;5104650;27;43441;-79
2023/09/14 05:38:57;;;;;;;;;;;26.20;75.90;;;;;;5103179;27;43093;-79
2023/09/14 05:41:22;;;;;;;;;;;26.20;75.50;;;;;;5104653;27;43040;-80
2023/09/14 05:43:48;;;;;;;;;;;26.20;76.20;;;;;;5104441;27;42883;-80
2023/09/14 05:46:13;;;;;;;;;;;26.00;76.60;;;;;;5105077;27;43341;-79
2023/09/14 05:48:39;;;;;;;;;;;26.00;76.70;;;;;;5104614;27;43059;-79
2023/09/14 05:51:04;;;;;;;;;;;26.10;76.90;;;;;;5105125;27;43037;-79
2023/09/14 05:53:30;;;;;;;;;;;26.00;76.80;;;;;;5105321;27;42927;-79
2023/09/14 05:55:55;;;;;;;;;;;25.90;76.40;;;;;;5101390;27;44052;-80
2023/09/14 05:58:21;;;;;;;;;;;26.00;77.10;;;;;;5104317;27;43053;-79
2023/09/14 06:00:46;;;;;;;;;;;25.80;76.90;;;;;;5104836;27;44403;-79
2023/09/14 06:03:13;;;;;;;;;;;26.20;77.00;;;;;;5105256;27;43041;-79
2023/09/14 06:05:38;;;;;;;;;;;26.00;76.60;;;;;;5104467;27;43750;-79
2023/09/14 06:08:04;;;;;;;;;;;26.10;76.20;;;;;;5105119;27;42956;-79
2023/09/14 06:10:30;;;;;;;;;;;26.10;75.70;;;;;;5104957;27;43462;-79
2023/09/14 06:12:56;;;;;;;;;;;26.20;76.60;;;;;;5104459;27;42944;-79
2023/09/14 06:15:21;;;;;;;;;;;26.00;76.70;;;;;;5104182;27;43367;-79
2023/09/14 06:17:47;;;;;;;;;;;25.90;77.20;;;;;;5105280;27;43033;-79
2023/09/14 06:20:12;;;;;;;;;;;26.10;77.60;;;;;;5104822;27;43023;-79
2023/09/14 06:22:39;;;;;;;;;;;25.90;77.90;;;;;;5104676;27;42905;-79
2023/09/14 06:25:05;;;;;;;;;;;25.90;77.70;;;;;;5094946;27;42998;-79
2023/09/14 06:27:30;;;;;;;;;;;26.20;77.20;;;;;;5101489;27;43009;-79
2023/09/14 06:29:56;;;;;;;;;;;26.10;78.00;;;;;;5104398;27;42889;-79
2023/09/14 06:32:21;;;;;;;;;;;26.00;77.90;;;;;;5104832;27;42932;-79
2023/09/14 06:34:47;;;;;;;;;;;25.70;77.80;;;;;;5104054;27;43349;-80
2023/09/14 06:37:13;;;;;;;;;;;25.90;77.80;;;;;;5108375;27;42960;-86
2023/09/14 06:39:38;;;;;;;;;;;25.80;78.40;;;;;;5107872;27;43575;-79
2023/09/14 06:42:04;;;;;;;;;;;25.80;78.60;;;;;;5107331;27;42936;-83
2023/09/14 06:44:30;;;;;;;;;;;25.90;78.10;;;;;;5107519;27;43505;-80
2023/09/14 06:46:56;;;;;;;;;;;26.00;78.70;;;;;;5106158;27;43114;-80
2023/09/14 06:49:21;;;;;;;;;;;25.80;78.50;;;;;;5100239;27;43506;-80
2023/09/14 06:51:47;;;;;;;;;;;25.80;78.00;;;;;;5107620;27;43067;-80
2023/09/14 06:54:12;;;;;;;;;;;25.90;78.00;;;;;;5096961;27;43235;-79
2023/09/14 06:56:38;;;;;;;;;;;25.80;78.30;;;;;;5114068;27;43601;-86
2023/09/14 06:59:03;;;;;;;;;;;25.80;78.50;;;;;;5115624;27;43043;-80
2023/09/14 07:01:29;;;;;;;;;;;25.80;78.30;;;;;;5107592;27;43034;-80
2023/09/14 07:03:54;;;;;;;;;;;26.00;78.70;;;;;;5104614;27;43557;-80
2023/09/14 07:06:20;;;;;;;;;;;25.80;78.40;;;;;;5105873;27;43084;-89
2023/09/14 07:08:45;;;;;;;;;;;25.90;78.70;;;;;;5107025;27;43118;-79
2023/09/14 07:11:11;;;;;;;;;;;26.00;78.00;;;;;;5106940;27;43106;-80
2023/09/14 07:13:37;;;;;;;;;;;26.00;78.30;;;;;;5102639;27;43489;-79
2023/09/14 07:16:03;;;;;;;;;;;26.00;78.60;;;;;;5106972;27;43132;-80
2023/09/14 07:18:30;;;;;;;;;;;25.90;78.10;;;;;;5102289;27;43389;-80
2023/09/14 07:20:56;;;;;;;;;;;25.80;79.30;;;;;;5103950;27;42928;-81
2023/09/14 07:23:22;;;;;;;;;;;25.80;79.00;;;;;;5105794;27;43716;-80
2023/09/14 07:25:48;;;;;;;;;;;25.80;78.90;;;;;;5105589;27;43187;-80
2023/09/14 07:28:14;;;;;;;;;;;26.20;79.30;;;;;;5106637;27;43281;-80
2023/09/14 07:30:39;;;;;;;;;;;26.00;78.60;;;;;;5106769;27;42821;-80
2023/09/14 07:33:06;;;;;;;;;;;25.90;79.10;;;;;;5106549;27;43594;-81
2023/09/14 07:35:33;;;;;;;;;;;25.80;78.80;;;;;;5105918;27;43037;-80
2023/09/14 07:37:58;;;;;;;;;;;25.90;78.40;;;;;;5105595;27;43542;-79
2023/09/14 07:40:24;;;;;;;;;;;26.00;78.30;;;;;;5107656;27;42871;-79
2023/09/14 07:42:49;;;;;;;;;;;26.00;78.90;;;;;;5107169;27;43715;-79
2023/09/14 07:45:15;;;;;;;;;;;26.00;79.00;;;;;;5104088;27;43097;-84
2023/09/14 07:47:41;;;;;;;;;;;25.90;78.80;;;;;;5102299;27;42876;-84
2023/09/14 07:50:07;;;;;;;;;;;26.00;78.10;;;;;;5106475;27;42843;-85
2023/09/14 07:52:32;;;;;;;;;;;26.00;78.20;;;;;;5106822;27;42797;-79
2023/09/14 07:54:58;;;;;;;;;;;26.10;79.00;;;;;;5106851;27;42983;-83
2023/09/14 07:57:23;;;;;;;;;;;26.30;79.00;;;;;;5106941;27;43881;-85
2023/09/14 07:59:49;;;;;;;;;;;26.00;78.50;;;;;;5107141;27;42806;-85
2023/09/14 08:02:14;;;;;;;;;;;26.30;78.30;;;;;;5106947;27;43151;-79
2023/09/14 08:04:40;;;;;;;;;;;26.10;78.20;;;;;;5106802;27;42967;-80
2023/09/14 08:07:06;;;;;;;;;;;26.10;78.10;;;;;;5107175;27;42917;-84
2023/09/14 08:09:31;;;;;;;;;;;26.20;77.80;;;;;;5107100;27;42985;-83
2023/09/14 08:11:57;;;;;;;;;;;26.10;78.20;;;;;;5101082;27;42948;-79
2023/09/14 08:14:23;;;;;;;;;;;26.00;77.40;;;;;;5105482;27;43012;-81
2023/09/14 08:16:48;;;;;;;;;;;26.10;77.90;;;;;;5105920;27;42962;-79
2023/09/14 08:19:14;;;;;;;;;;;26.00;78.10;;;;;;5106390;27;43114;-84
2023/09/14 08:21:39;;;;;;;;;;;26.10;78.60;;;;;;5106263;27;42891;-84
2023/09/14 08:24:05;;;;;;;;;;;26.00;78.50;;;;;;5105602;27;43000;-80
2023/09/14 08:26:30;;;;;;;;;;;26.00;78.20;;;;;;5099961;27;44728;-85
2023/09/14 08:28:56;;;;;;;;;;;26.10;78.70;;;;;;5105765;27;42961;-86
2023/09/14 08:31:21;;;;;;;;;;;26.10;78.40;;;;;;5105907;27;43004;-79
2023/09/14 08:33:47;;;;;;;;;;;26.20;78.60;;;;;;5105785;27;42918;-80
2023/09/14 08:36:13;;;;;;;;;;;26.20;78.60;;;;;;5105895;27;43015;-83
2023/09/14 08:38:38;;;;;;;;;;;26.30;78.90;;;;;;5106327;27;42979;-84
2023/09/14 08:41:07;;;;;;;;;;;26.20;78.50;;;;;;5101037;27;44259;-84
2023/09/14 08:43:33;;;;;;;;;;;26.40;79.10;;;;;;5104169;27;42922;-79
2023/09/14 08:45:59;;;;;;;;;;;26.20;78.60;;;;;;5108273;27;43023;-80
2023/09/14 08:48:26;;;;;;;;;;;25.60;78.00;;;;;;5116134;27;42955;-79
2023/09/14 08:50:52;;;;;;;;;;;26.30;78.20;;;;;;5110944;27;43517;-84
2023/09/14 08:53:17;;;;;;;;;;;26.50;78.40;;;;;;5105236;27;42992;-85
2023/09/14 08:55:43;;;;;;;;;;;26.10;77.70;;;;;;5106173;27;43058;-85
2023/09/14 08:58:10;;;;;;;;;;;26.30;78.20;;;;;;5105162;27;42965;-84
2023/09/14 09:00:37;;;;;;;;;;;26.20;78.00;;;;;;5102510;27;43505;-84
2023/09/14 09:03:02;;;;;;;;;;;26.20;78.00;;;;;;5105862;27;42969;-79
2023/09/14 09:05:28;;;;;;;;;;;26.30;78.10;;;;;;5105515;27;42905;-79
2023/09/14 09:07:54;;;;;;;;;;;26.20;77.70;;;;;;5105470;27;43022;-83
2023/09/14 09:10:21;;;;;;;;;;;26.30;77.40;;;;;;5105296;27;43055;-79
2023/09/14 09:12:49;;;;;;;;;;;26.40;77.10;;;;;;5105691;27;43240;-84
2023/09/14 09:15:15;;;;;;;;;;;26.40;76.80;;;;;;5105098;27;42850;-79
2023/09/14 09:17:41;;;;;;;;;;;26.30;76.70;;;;;;5106127;27;42925;-80
2023/09/14 09:20:11;;;;;;;;;;;26.10;76.70;;;;;;5105905;27;42956;-80
2023/09/14 09:22:39;;;;;;;;;;;26.10;76.40;;;;;;5105916;27;43246;-79
2023/09/14 09:25:04;;;;;;;;;;;26.20;77.00;;;;;;5105362;27;43011;-84
2023/09/14 09:27:30;;;;;;;;;;;26.20;76.60;;;;;;5102709;27;43047;-83
2023/09/14 09:29:59;;;;;;;;;;;26.30;77.10;;;;;;5100231;27;43606;-79
2023/09/14 09:32:24;;;;;;;;;;;26.20;74.30;;;;;;5104550;27;43047;-82
2023/09/14 09:34:50;;;;;;;;;;;26.60;77.10;;;;;;5105459;27;42891;-79
2023/09/14 09:37:16;;;;;;;;;;;26.40;77.00;;;;;;5105457;27;42840;-82
2023/09/14 09:39:42;;;;;;;;;;;26.30;77.20;;;;;;5105184;27;42881;-81
2023/09/14 09:42:10;;;;;;;;;;;26.40;77.00;;;;;;5105118;27;42878;-79
2023/09/14 09:44:37;;;;;;;;;;;26.50;76.50;;;;;;5105136;27;42906;-82
2023/09/14 09:47:02;;;;;;;;;;;26.40;77.90;;;;;;5105283;27;43273;-83
2023/09/14 09:49:29;;;;;;;;;;;26.40;77.30;;;;;;5105125;27;42943;-79
2023/09/14 09:51:54;;;;;;;;;;;26.30;77.70;;;;;;5105469;27;42885;-79
2023/09/14 09:54:21;;;;;;;;;;;26.40;78.10;;;;;;5104507;27;43720;-79
2023/09/14 09:56:47;;;;;;;;;;;26.30;77.90;;;;;;5101750;27;43029;-83
2023/09/14 09:59:14;;;;;;;;;;;26.40;78.10;;;;;;5102415;27;43451;-84
2023/09/14 10:01:40;;;;;;;;;;;26.50;78.20;;;;;;5104878;27;42984;-79
2023/09/14 10:04:13;;;;;;;;;;;26.50;78.40;;;;;;5103072;27;44571;-82
2023/09/14 10:06:40;;;;;;;;;;;26.50;76.30;;;;;;5105570;27;43117;-79
2023/09/14 10:09:10;;;;;;;;;;;26.30;78.20;;;;;;5104759;27;43475;-79
2023/09/14 10:11:36;;;;;;;;;;;26.60;75.90;;;;;;5108022;27;43043;-82
2023/09/14 10:14:03;;;;;;;;;;;26.60;78.10;;;;;;5108684;27;42821;-83
2023/09/14 10:16:30;;;;;;;;;;;26.60;77.90;;;;;;5108983;27;43525;-79
2023/09/14 10:18:56;;;;;;;;;;;26.40;77.70;;;;;;5108691;27;43520;-79
2023/09/14 10:21:22;;;;;;;;;;;26.60;77.50;;;;;;5103087;27;42850;-80
2023/09/14 10:23:49;;;;;;;;;;;26.40;76.70;;;;;;5114738;27;42974;-81
2023/09/14 10:26:15;;;;;;;;;;;26.30;77.20;;;;;;5105131;27;43065;-80
2023/09/14 10:28:41;;;;;;;;;;;26.30;77.10;;;;;;5107827;27;42971;-81
2023/09/14 10:31:08;;;;;;;;;;;26.50;76.80;;;;;;5107951;27;43068;-80
2023/09/14 10:33:33;;;;;;;;;;;26.60;76.80;;;;;;5106109;27;42918;-82
2023/09/14 10:36:00;;;;;;;;;;;26.70;76.80;;;;;;5105710;27;43078;-84
2023/09/14 10:38:27;;;;;;;;;;;26.60;76.30;;;;;;5108192;27;43067;-79
2023/09/14 10:40:53;;;;;;;;;;;26.50;77.50;;;;;;5108645;27;42961;-86
2023/09/14 10:43:19;;;;;;;;;;;26.60;77.10;;;;;;5105761;27;43389;-79
2023/09/14 10:45:46;;;;;;;;;;;26.50;77.00;;;;;;5103399;27;43186;-79
2023/09/14 10:48:15;;;;;;;;;;;26.50;77.30;;;;;;5107164;27;42961;-81
2023/09/14 10:50:41;;;;;;;;;;;26.50;77.20;;;;;;5107756;27;42889;-79
2023/09/14 10:53:06;;;;;;;;;;;26.40;76.80;;;;;;5107731;27;43051;-85
2023/09/14 10:55:35;;;;;;;;;;;26.60;77.00;;;;;;5107564;27;42975;-86
2023/09/14 10:58:01;;;;;;;;;;;26.40;77.00;;;;;;5107461;27;42976;-79
2023/09/14 11:00:31;;;;;;;;;;;26.50;77.70;;;;;;5107134;27;43081;-83
2023/09/14 11:02:56;;;;;;;;;;;26.50;75.00;;;;;;5107355;27;43603;-84
2023/09/14 11:05:23;;;;;;;;;;;26.60;77.10;;;;;;5107176;27;42981;-81
2023/09/14 11:07:57;;;;;;;;;;;26.40;76.30;;;;;;5107025;27;43031;-80
2023/09/14 11:10:22;;;;;;;;;;;26.70;74.20;;;;;;5107470;27;43143;-85
2023/09/14 11:12:48;;;;;;;;;;;26.50;76.30;;;;;;5107024;27;43314;-79
2023/09/14 11:15:17;;;;;;;;;;;26.60;75.30;;;;;;5106607;27;42988;-84
2023/09/14 11:17:43;;;;;;;;;;;26.50;73.20;;;;;;5106820;27;43431;-79
2023/09/14 11:20:20;;;;;;;;;;;26.50;75.50;;;;;;5107746;27;42814;-79
2023/09/14 11:22:49;;;;;;;;;;;26.60;72.90;;;;;;5103943;27;43428;-81
2023/09/14 11:25:33;;;;;;;;;;;26.40;75.30;;;;;;5107427;27;42988;-79
2023/09/14 11:27:59;;;;;;;;;;;26.40;73.00;;;;;;5106427;27;42963;-80
2023/09/14 11:30:26;;;;;;;;;;;26.30;74.70;;;;;;5106888;27;42904;-80
2023/09/14 11:32:52;;;;;;;;;;;26.50;75.00;;;;;;5100583;27;43617;-85
2023/09/14 11:35:18;;;;;;;;;;;26.40;73.70;;;;;;5105766;27;42841;-83
2023/09/14 11:37:45;;;;;;;;;;;26.50;74.70;;;;;;5103415;27;43551;-84
2023/09/14 11:40:15;;;;;;;;;;;26.40;74.60;;;;;;5101725;27;43160;-84
2023/09/14 11:42:59;;;;;;;;;;;26.60;72.20;;;;;;5105032;27;42975;-79
2023/09/14 11:45:24;;;;;;;;;;;26.90;72.50;;;;;;5102260;27;43150;-84
2023/09/14 11:47:50;;;;;;;;;;;26.60;75.30;;;;;;5103889;27;42938;-85
2023/09/14 11:50:17;;;;;;;;;;;26.50;75.60;;;;;;5104015;27;43389;-83
2023/09/14 11:52:44;;;;;;;;;;;26.20;75.50;;;;;;5103442;27;45523;-85
2023/09/14 11:55:14;;;;;;;;;;;26.60;75.40;;;;;;5105545;27;42995;-82
2023/09/14 11:57:40;;;;;;;;;;;26.40;75.80;;;;;;5099978;27;42944;-84
2023/09/14 12:00:06;;;;;;;;;;;26.50;75.70;;;;;;5103770;27;43018;-85
2023/09/14 12:02:31;;;;;;;;;;;26.60;74.80;;;;;;5104844;27;44368;-83
2023/09/14 12:04:57;;;;;;;;;;;26.60;75.10;;;;;;5101324;27;42858;-79
2023/09/14 12:07:23;;;;;;;;;;;26.60;75.10;;;;;;5105423;27;43197;-79
2023/09/14 12:09:49;;;;;;;;;;;26.70;74.70;;;;;;5103434;27;43026;-83
2023/09/14 12:12:24;;;;;;;;;;;26.60;74.90;;;;;;5103914;27;42954;-79
2023/09/14 12:14:50;;;;;;;;;;;26.50;75.10;;;;;;5106527;27;43065;-79
2023/09/14 12:17:19;;;;;;;;;;;26.50;74.30;;;;;;5106208;27;42960;-85
2023/09/14 12:19:49;;;;;;;;;;;26.60;71.90;;;;;;5105841;27;43007;-81
2023/09/14 12:22:15;;;;;;;;;;;26.70;73.70;;;;;;5104990;27;43585;-80
2023/09/14 12:24:41;;;;;;;;;;;26.70;74.40;;;;;;5105144;27;42935;-84
2023/09/14 12:27:07;;;;;;;;;;;24.70;73.20;;;;;;5106282;27;42831;-82
2023/09/14 12:29:33;;;;;;;;;;;26.70;74.30;;;;;;5111471;27;43102;-81
2023/09/14 12:31:58;;;;;;;;;;;26.70;73.90;;;;;;5112405;27;42979;-79
2023/09/14 12:34:24;;;;;;;;;;;26.90;74.40;;;;;;5115629;27;43397;-79
2023/09/14 12:36:49;;;;;;;;;;;26.80;73.60;;;;;;5105456;27;43593;-79
2023/09/14 12:39:15;;;;;;;;;;;26.60;73.80;;;;;;5105872;27;42977;-79
2023/09/14 12:41:41;;;;;;;;;;;26.70;73.70;;;;;;5105715;27;43031;-79
2023/09/14 12:44:07;;;;;;;;;;;26.70;73.70;;;;;;5105854;27;42998;-79
2023/09/14 12:46:32;;;;;;;;;;;26.70;73.80;;;;;;5105606;27;43638;-79
2023/09/14 12:49:01;;;;;;;;;;;26.90;73.80;;;;;;5104159;27;43097;-79
2023/09/14 12:51:26;;;;;;;;;;;26.80;71.30;;;;;;5106059;27;42877;-79
2023/09/14 12:53:54;;;;;;;;;;;26.60;74.10;;;;;;5105743;27;42923;-80
2023/09/14 12:56:21;;;;;;;;;;;26.70;73.70;;;;;;5105869;27;43560;-79
2023/09/14 12:58:46;;;;;;;;;;;26.70;73.80;;;;;;5106104;27;43135;-80
2023/09/14 13:01:12;;;;;;;;;;;26.70;73.40;;;;;;5105883;27;43877;-81
2023/09/14 13:03:38;;;;;;;;;;;26.90;74.70;;;;;;5104530;27;42873;-80
2023/09/14 13:06:04;;;;;;;;;;;26.60;74.60;;;;;;5100481;27;42985;-83
2023/09/14 13:08:41;;;;;;;;;;;26.60;74.30;;;;;;5104914;27;43200;-79
2023/09/14 13:11:07;;;;;;;;;;;26.70;73.80;;;;;;5104989;27;42972;-79
2023/09/14 13:13:33;;;;;;;;;;;26.30;73.70;;;;;;5105464;27;42971;-81
2023/09/14 13:15:59;;;;;;;;;;;26.80;74.00;;;;;;5105323;27;43607;-79
2023/09/14 13:18:25;;;;;;;;;;;26.70;73.90;;;;;;5105333;27;42913;-80
2023/09/14 13:20:51;;;;;;;;;;;26.90;73.70;;;;;;5105380;27;43312;-80
2023/09/14 13:23:18;;;;;;;;;;;26.80;74.10;;;;;;5105904;27;42898;-79
2023/09/14 13:25:43;;;;;;;;;;;27.00;74.40;;;;;;5106062;27;43350;-79
2023/09/14 13:28:11;;;;;;;;;;;26.70;74.50;;;;;;5102780;27;42937;-80
2023/09/14 13:30:36;;;;;;;;;;;26.70;74.50;;;;;;5104847;27;43294;-80
2023/09/14 13:33:02;;;;;;;;;;;26.60;74.80;;;;;;5105138;27;42904;-80
2023/09/14 13:35:28;;;;;;;;;;;26.70;74.90;;;;;;5103521;27;42930;-82
2023/09/14 13:37:54;;;;;;;;;;;26.80;75.40;;;;;;5104914;27;43058;-83
2023/09/14 13:40:20;;;;;;;;;;;26.70;75.10;;;;;;5102164;27;44895;-79
2023/09/14 13:42:46;;;;;;;;;;;26.80;74.40;;;;;;5104609;27;43115;-79
2023/09/14 13:45:13;;;;;;;;;;;26.70;75.10;;;;;;5099657;27;43047;-81
2023/09/14 13:47:39;;;;;;;;;;;26.80;74.70;;;;;;5103279;27;43047;-80
2023/09/14 13:50:04;;;;;;;;;;;26.70;74.70;;;;;;5104569;27;43476;-79
2023/09/14 13:52:32;;;;;;;;;;;26.80;73.90;;;;;;5105275;27;42949;-82
2023/09/14 13:54:57;;;;;;;;;;;26.60;74.40;;;;;;5105006;27;42814;-82
2023/09/14 13:57:23;;;;;;;;;;;26.70;75.30;;;;;;5104940;27;42910;-79
2023/09/14 13:59:49;;;;;;;;;;;26.60;76.00;;;;;;5105199;27;43479;-81
2023/09/14 14:02:18;;;;;;;;;;;26.50;76.10;;;;;;5103740;27;42995;-83
2023/09/14 14:04:46;;;;;;;;;;;26.70;73.60;;;;;;5105052;27;43681;-81
2023/09/14 14:07:12;;;;;;;;;;;26.70;73.40;;;;;;5105269;27;43140;-79
2023/09/14 14:09:41;;;;;;;;;;;26.60;75.80;;;;;;5104917;27;43021;-80